createdAt,value
2023-02-04T00:00:03.265Z,5.10
2023-02-04T00:01:03.283Z,5.00
2023-02-04T00:02:03.349Z,5.00
2023-02-04T00:03:03.527Z,5.10
2023-02-04T00:04:03.397Z,5.10
2023-02-04T00:05:03.280Z,5.00
2023-02-04T00:06:03.451Z,5.00
2023-02-04T00:07:03.370Z,5.00
2023-02-04T00:08:04.493Z,5.00
2023-02-04T00:09:02.641Z,5.00
2023-02-04T00:10:02.709Z,5.00
2023-02-04T00:11:02.608Z,5.00
2023-02-04T00:12:02.590Z,5.00
2023-02-04T00:13:02.693Z,5.00
2023-02-04T00:14:03.606Z,5.00
2023-02-04T00:15:03.564Z,5.00
2023-02-04T00:16:02.758Z,5.00
2023-02-04T00:17:02.738Z,5.00
2023-02-04T00:18:02.705Z,5.00
2023-02-04T00:19:03.338Z,5.00
2023-02-04T00:20:03.362Z,5.00
2023-02-04T00:21:03.429Z,5.00
2023-02-04T00:22:03.432Z,5.00
2023-02-04T00:23:03.455Z,5.00
2023-02-04T00:24:03.535Z,5.00
2023-02-04T00:25:03.566Z,4.90
2023-02-04T00:26:03.558Z,5.00
2023-02-04T00:27:03.459Z,5.00
2023-02-04T00:28:03.524Z,5.00
2023-02-04T00:29:03.435Z,4.90
2023-02-04T00:30:03.463Z,4.90
2023-02-04T00:31:03.448Z,4.90
2023-02-04T00:32:03.586Z,4.90
2023-02-04T00:33:03.462Z,4.90
2023-02-04T00:34:03.596Z,4.90
2023-02-04T00:35:03.478Z,4.90
2023-02-04T00:36:03.538Z,4.90
2023-02-04T00:37:03.505Z,4.90
2023-02-04T00:38:03.439Z,4.90
2023-02-04T00:39:03.451Z,4.90
2023-02-04T00:40:03.335Z,4.90
2023-02-04T00:41:03.388Z,4.90
2023-02-04T00:42:03.304Z,4.90
2023-02-04T00:43:03.245Z,4.90
2023-02-04T00:44:03.305Z,4.90
2023-02-04T00:45:03.162Z,4.90
2023-02-04T00:46:03.165Z,4.90
2023-02-04T00:47:03.012Z,4.90
2023-02-04T00:48:03.172Z,4.90
2023-02-04T00:49:03.154Z,4.90
2023-02-04T00:50:03.137Z,4.80
2023-02-04T00:51:03.142Z,4.80
2023-02-04T00:52:03.157Z,4.80
2023-02-04T00:53:03.094Z,4.80
2023-02-04T00:54:02.986Z,4.80
2023-02-04T00:55:03.093Z,4.80
2023-02-04T00:56:03.100Z,4.80
2023-02-04T00:57:03.168Z,4.80
2023-02-04T00:58:03.144Z,4.80
2023-02-04T00:59:03.249Z,4.80
2023-02-04T01:00:03.281Z,4.80
2023-02-04T01:01:03.374Z,4.80
2023-02-04T01:02:03.391Z,4.80
2023-02-04T01:03:03.433Z,4.80
2023-02-04T01:04:03.422Z,4.70
2023-02-04T01:05:03.304Z,4.70
2023-02-04T01:06:03.250Z,4.70
2023-02-04T01:07:03.372Z,4.70
2023-02-04T01:08:03.398Z,4.70
2023-02-04T01:09:03.351Z,4.70
2023-02-04T01:10:03.401Z,4.60
2023-02-04T01:11:02.686Z,4.60
2023-02-04T01:12:02.807Z,4.60
2023-02-04T01:13:02.723Z,4.60
2023-02-04T01:14:03.617Z,4.60
2023-02-04T01:15:03.591Z,4.60
2023-02-04T01:16:03.568Z,4.50
2023-02-04T01:17:03.440Z,4.50
2023-02-04T01:18:03.405Z,4.50
2023-02-04T01:19:04.618Z,4.50
2023-02-04T01:20:03.259Z,4.50
2023-02-04T01:21:03.251Z,4.50
2023-02-04T01:22:03.270Z,4.50
2023-02-04T01:23:03.373Z,4.50
2023-02-04T01:24:03.310Z,4.50
2023-02-04T01:25:03.250Z,4.40
2023-02-04T01:26:03.172Z,4.40
2023-02-04T01:27:03.203Z,4.40
2023-02-04T01:28:03.251Z,4.40
2023-02-04T01:29:03.207Z,4.40
2023-02-04T01:30:03.148Z,4.40
2023-02-04T01:31:03.155Z,4.40
2023-02-04T01:32:03.044Z,4.40
2023-02-04T01:33:02.992Z,4.40
2023-02-04T01:34:03.051Z,4.40
2023-02-04T01:35:03.012Z,4.30
2023-02-04T01:36:02.979Z,4.40
2023-02-04T01:37:02.915Z,4.40
2023-02-04T01:38:03.024Z,4.30
2023-02-04T01:39:02.893Z,4.30
2023-02-04T01:40:02.960Z,4.30
2023-02-04T01:41:02.885Z,4.30
2023-02-04T01:42:02.893Z,4.30
2023-02-04T01:43:02.924Z,4.30
2023-02-04T01:44:02.916Z,4.20
2023-02-04T01:45:02.887Z,4.20
2023-02-04T01:46:02.943Z,4.20
2023-02-04T01:47:02.719Z,4.10
2023-02-04T01:48:02.681Z,3.90
2023-02-04T01:49:03.563Z,3.90
2023-02-04T01:50:03.647Z,3.80
2023-02-04T01:51:03.540Z,3.70
2023-02-04T01:52:03.641Z,3.60
2023-02-04T01:53:03.553Z,3.50
2023-02-04T01:54:03.555Z,3.50
2023-02-04T01:55:03.618Z,3.40
2023-02-04T01:56:03.616Z,3.30
2023-02-04T01:57:03.473Z,3.20
2023-02-04T01:58:03.506Z,3.10
2023-02-04T01:59:03.457Z,3.10
2023-02-04T02:00:03.369Z,3.00
2023-02-04T02:01:03.457Z,3.00
2023-02-04T02:02:03.291Z,2.90
2023-02-04T02:03:03.403Z,2.80
2023-02-04T02:04:03.352Z,2.80
2023-02-04T02:05:03.384Z,2.70
2023-02-04T02:06:03.342Z,2.70
2023-02-04T02:07:03.241Z,2.60
2023-02-04T02:08:03.262Z,2.60
2023-02-04T02:09:03.316Z,2.60
2023-02-04T02:10:03.345Z,2.50
2023-02-04T02:11:03.342Z,2.50
2023-02-04T02:12:03.401Z,2.50
2023-02-04T02:13:03.360Z,2.50
2023-02-04T02:14:03.430Z,2.50
2023-02-04T02:15:03.433Z,2.50
2023-02-04T02:16:03.417Z,2.40
2023-02-04T02:17:03.535Z,2.40
2023-02-04T02:18:03.588Z,2.50
2023-02-04T02:19:03.510Z,2.50
2023-02-04T02:20:03.442Z,2.40
2023-02-04T02:21:03.501Z,2.40
2023-02-04T02:22:03.577Z,2.40
2023-02-04T02:23:03.652Z,2.40
2023-02-04T02:24:03.559Z,2.40
2023-02-04T02:25:03.567Z,2.40
2023-02-04T02:26:03.591Z,2.40
2023-02-04T02:27:03.566Z,2.40
2023-02-04T02:28:03.557Z,2.40
2023-02-04T02:29:03.584Z,2.40
2023-02-04T02:30:03.548Z,2.40
2023-02-04T02:31:03.647Z,2.40
2023-02-04T02:32:03.470Z,2.40
2023-02-04T02:33:03.645Z,2.40
2023-02-04T02:34:03.560Z,2.30
2023-02-04T02:35:03.535Z,2.30
2023-02-04T02:36:03.477Z,2.30
2023-02-04T02:37:03.449Z,2.30
2023-02-04T02:38:03.446Z,2.30
2023-02-04T02:39:03.383Z,2.30
2023-02-04T02:40:03.419Z,2.30
2023-02-04T02:41:03.492Z,2.30
2023-02-04T02:42:03.399Z,2.30
2023-02-04T02:43:04.255Z,2.30
2023-02-04T02:44:03.388Z,2.30
2023-02-04T02:45:03.441Z,2.30
2023-02-04T02:46:03.472Z,2.30
2023-02-04T02:47:03.402Z,2.30
2023-02-04T02:48:03.391Z,2.30
2023-02-04T02:49:03.377Z,2.30
2023-02-04T02:50:03.397Z,2.20
2023-02-04T02:51:03.548Z,2.30
2023-02-04T02:52:03.471Z,2.30
2023-02-04T02:53:03.416Z,2.30
2023-02-04T02:54:03.315Z,2.30
2023-02-04T02:55:03.298Z,2.20
2023-02-04T02:56:03.328Z,2.20
2023-02-04T02:57:03.283Z,2.20
2023-02-04T02:58:03.187Z,2.30
2023-02-04T02:59:03.185Z,2.30
2023-02-04T03:00:03.105Z,2.30
2023-02-04T03:01:03.140Z,2.30
2023-02-04T03:02:03.091Z,2.30
2023-02-04T03:03:03.010Z,2.30
2023-02-04T03:04:02.942Z,2.30
2023-02-04T03:05:03.095Z,2.30
2023-02-04T03:06:02.970Z,2.30
2023-02-04T03:07:03.069Z,2.30
2023-02-04T03:08:03.128Z,2.30
2023-02-04T03:09:03.001Z,2.30
2023-02-04T03:10:03.084Z,2.30
2023-02-04T03:11:02.818Z,2.30
2023-02-04T03:12:02.772Z,2.30
2023-02-04T03:13:02.929Z,2.30
2023-02-04T03:14:02.899Z,2.30
2023-02-04T03:15:02.875Z,2.30
2023-02-04T03:16:02.969Z,2.30
2023-02-04T03:17:02.997Z,2.20
2023-02-04T03:18:02.991Z,2.20
2023-02-04T03:19:02.920Z,2.20
2023-02-04T03:20:02.827Z,2.20
2023-02-04T03:21:02.846Z,2.20
2023-02-04T03:22:02.946Z,2.20
2023-02-04T03:23:02.884Z,2.30
2023-02-04T03:24:02.974Z,2.20
2023-02-04T03:25:02.910Z,2.20
2023-02-04T03:26:02.918Z,2.20
2023-02-04T03:27:02.939Z,2.20
2023-02-04T03:28:03.074Z,2.20
2023-02-04T03:29:03.090Z,2.20
2023-02-04T03:30:02.989Z,2.20
2023-02-04T03:31:02.952Z,2.20
2023-02-04T03:32:03.109Z,2.20
2023-02-04T03:33:03.022Z,2.20
2023-02-04T03:34:03.074Z,2.20
2023-02-04T03:35:03.171Z,2.20
2023-02-04T03:36:03.055Z,2.20
2023-02-04T03:37:03.077Z,2.20
2023-02-04T03:38:03.046Z,2.20
2023-02-04T03:39:03.203Z,2.10
2023-02-04T03:40:03.070Z,2.10
2023-02-04T03:41:03.167Z,2.10
2023-02-04T03:42:03.220Z,2.10
2023-02-04T03:43:03.130Z,2.10
2023-02-04T03:44:03.072Z,2.10
2023-02-04T03:45:03.125Z,2.10
2023-02-04T03:46:03.113Z,2.10
2023-02-04T03:47:03.043Z,2.10
2023-02-04T03:48:03.048Z,2.10
2023-02-04T03:49:03.001Z,2.10
2023-02-04T03:50:03.037Z,2.10
2023-02-04T03:51:02.926Z,2.10
2023-02-04T03:52:02.879Z,2.10
2023-02-04T03:53:02.790Z,2.10
2023-02-04T03:54:02.769Z,2.10
2023-02-04T03:55:02.836Z,2.10
2023-02-04T03:56:02.831Z,2.10
2023-02-04T03:57:02.768Z,2.10
2023-02-04T03:58:02.726Z,2.00
2023-02-04T03:59:02.730Z,2.10
2023-02-04T04:00:03.183Z,2.10
2023-02-04T04:01:03.252Z,2.10
2023-02-04T04:02:03.196Z,2.10
2023-02-04T04:03:03.186Z,2.10
2023-02-04T04:04:03.129Z,2.00
2023-02-04T04:05:03.129Z,2.00
2023-02-04T04:06:03.194Z,2.10
2023-02-04T04:07:03.205Z,2.00
2023-02-04T04:08:03.227Z,2.00
2023-02-04T04:09:03.285Z,2.00
2023-02-04T04:10:03.149Z,2.00
2023-02-04T04:11:03.218Z,2.00
2023-02-04T04:12:03.213Z,2.00
2023-02-04T04:13:03.237Z,2.00
2023-02-04T04:14:03.135Z,2.00
2023-02-04T04:15:03.145Z,2.00
2023-02-04T04:16:03.158Z,2.00
2023-02-04T04:17:03.171Z,2.00
2023-02-04T04:18:03.047Z,1.90
2023-02-04T04:19:03.170Z,1.90
2023-02-04T04:20:03.179Z,1.90
2023-02-04T04:21:03.043Z,1.90
2023-02-04T04:22:03.095Z,1.90
2023-02-04T04:23:03.098Z,1.90
2023-02-04T04:24:03.141Z,1.90
2023-02-04T04:25:02.952Z,1.90
2023-02-04T04:26:03.019Z,1.90
2023-02-04T04:27:03.033Z,1.90
2023-02-04T04:28:03.068Z,1.90
2023-02-04T04:29:02.900Z,1.90
2023-02-04T04:30:03.035Z,1.90
2023-02-04T04:31:03.109Z,1.90
2023-02-04T04:32:03.006Z,1.90
2023-02-04T04:33:03.064Z,1.90
2023-02-04T04:34:02.987Z,1.90
2023-02-04T04:35:02.900Z,1.90
2023-02-04T04:36:02.995Z,1.90
2023-02-04T04:37:02.984Z,1.90
2023-02-04T04:38:03.024Z,1.90
2023-02-04T04:39:03.011Z,1.90
2023-02-04T04:40:03.027Z,1.90
2023-02-04T04:41:03.138Z,1.90
2023-02-04T04:42:03.168Z,1.90
2023-02-04T04:43:03.181Z,1.90
2023-02-04T04:44:03.160Z,1.90
2023-02-04T04:45:03.099Z,1.90
2023-02-04T04:46:03.152Z,1.90
2023-02-04T04:47:03.021Z,1.90
2023-02-04T04:48:03.072Z,1.90
2023-02-04T04:49:03.005Z,1.90
2023-02-04T04:50:03.079Z,1.90
2023-02-04T04:51:02.954Z,1.90
2023-02-04T04:52:02.953Z,1.90
2023-02-04T04:53:02.934Z,1.90
2023-02-04T04:54:03.090Z,1.90
2023-02-04T04:55:03.024Z,1.90
2023-02-04T04:56:02.912Z,1.90
2023-02-04T04:57:02.938Z,1.90
2023-02-04T04:58:02.913Z,1.90
2023-02-04T04:59:03.224Z,1.90
2023-02-04T05:00:03.201Z,1.90
2023-02-04T05:01:03.167Z,1.90
2023-02-04T05:02:03.222Z,1.90
2023-02-04T05:03:03.191Z,1.90
2023-02-04T05:04:03.298Z,1.90
2023-02-04T05:05:03.356Z,1.90
2023-02-04T05:06:03.255Z,1.90
2023-02-04T05:07:03.201Z,1.90
2023-02-04T05:08:03.187Z,1.90
2023-02-04T05:09:03.235Z,1.90
2023-02-04T05:10:03.266Z,1.90
2023-02-04T05:11:03.142Z,1.90
2023-02-04T05:12:03.177Z,1.90
2023-02-04T05:13:03.078Z,1.90
2023-02-04T05:14:03.140Z,1.90
2023-02-04T05:15:03.275Z,1.90
2023-02-04T05:16:03.254Z,1.90
2023-02-04T05:17:03.259Z,1.90
2023-02-04T05:18:03.255Z,1.90
2023-02-04T05:19:03.200Z,1.90
2023-02-04T05:20:03.203Z,1.90
2023-02-04T05:21:03.101Z,1.90
2023-02-04T05:22:03.057Z,1.90
2023-02-04T05:23:05.446Z,1.90
2023-02-04T05:24:02.898Z,1.90
2023-02-04T05:25:03.044Z,1.90
2023-02-04T05:26:02.972Z,1.90
2023-02-04T05:27:02.984Z,1.90
2023-02-04T05:28:03.094Z,1.90
2023-02-04T05:29:02.954Z,1.90
2023-02-04T05:30:02.963Z,1.80
2023-02-04T05:31:03.889Z,1.80
2023-02-04T05:32:02.959Z,1.90
2023-02-04T05:33:03.001Z,1.90
2023-02-04T05:34:02.954Z,1.90
2023-02-04T05:35:04.133Z,1.80
2023-02-04T05:36:02.924Z,1.90
2023-02-04T05:37:02.881Z,1.80
2023-02-04T05:38:03.027Z,1.90
2023-02-04T05:39:02.917Z,1.90
2023-02-04T05:40:02.917Z,1.90
2023-02-04T05:41:02.934Z,1.90
2023-02-04T05:42:02.904Z,1.80
2023-02-04T05:43:03.476Z,1.80
2023-02-04T05:44:02.631Z,1.80
2023-02-04T05:45:03.574Z,1.90
2023-02-04T05:46:02.706Z,1.80
2023-02-04T05:47:03.570Z,1.80
2023-02-04T05:48:02.619Z,1.80
2023-02-04T05:49:02.668Z,1.80
2023-02-04T05:50:02.601Z,1.80
2023-02-04T05:51:02.710Z,1.80
2023-02-04T05:52:02.751Z,1.80
2023-02-04T05:53:02.778Z,1.80
2023-02-04T05:54:02.705Z,1.80
2023-02-04T05:55:02.694Z,1.80
2023-02-04T05:56:02.719Z,1.80
2023-02-04T05:57:02.806Z,1.80
2023-02-04T05:58:02.698Z,1.80
2023-02-04T05:59:02.688Z,1.80
2023-02-04T06:00:02.722Z,1.80
2023-02-04T06:01:02.721Z,1.80
2023-02-04T06:02:02.732Z,1.80
2023-02-04T06:03:02.733Z,1.80
2023-02-04T06:04:03.644Z,1.80
2023-02-04T06:05:03.600Z,1.70
2023-02-04T06:06:02.680Z,1.80
2023-02-04T06:07:03.589Z,1.80
2023-02-04T06:08:03.588Z,1.70
2023-02-04T06:09:03.572Z,1.70
2023-02-04T06:10:03.489Z,1.70
2023-02-04T06:11:03.428Z,1.70
2023-02-04T06:12:03.435Z,1.70
2023-02-04T06:13:03.423Z,1.80
2023-02-04T06:14:03.429Z,1.70
2023-02-04T06:15:03.355Z,1.80
2023-02-04T06:16:03.399Z,1.80
2023-02-04T06:17:03.380Z,1.80
2023-02-04T06:18:03.435Z,1.70
2023-02-04T06:19:03.427Z,1.80
2023-02-04T06:20:03.361Z,1.80
2023-02-04T06:21:03.300Z,1.70
2023-02-04T06:22:03.233Z,1.70
2023-02-04T06:23:03.240Z,1.70
2023-02-04T06:24:04.635Z,1.70
2023-02-04T06:25:03.150Z,1.70
2023-02-04T06:26:03.194Z,1.70
2023-02-04T06:27:03.238Z,1.70
2023-02-04T06:28:03.369Z,1.70
2023-02-04T06:29:03.312Z,1.70
2023-02-04T06:30:03.344Z,1.70
2023-02-04T06:31:03.410Z,1.70
2023-02-04T06:32:03.377Z,1.70
2023-02-04T06:33:03.414Z,1.70
2023-02-04T06:34:03.466Z,1.70
2023-02-04T06:35:03.482Z,1.70
2023-02-04T06:36:03.622Z,1.70
2023-02-04T06:37:03.603Z,1.70
2023-02-04T06:38:03.499Z,1.70
2023-02-04T06:39:03.551Z,1.70
2023-02-04T06:40:03.587Z,1.70
2023-02-04T06:41:03.542Z,1.70
2023-02-04T06:42:03.549Z,1.70
2023-02-04T06:43:04.524Z,1.70
2023-02-04T06:44:03.592Z,1.60
2023-02-04T06:45:03.555Z,1.60
2023-02-04T06:46:03.605Z,1.60
2023-02-04T06:47:03.566Z,1.60
2023-02-04T06:48:02.677Z,1.60
2023-02-04T06:49:03.588Z,1.60
2023-02-04T06:50:02.661Z,1.60
2023-02-04T06:51:02.755Z,1.60
2023-02-04T06:52:02.833Z,1.60
2023-02-04T06:53:02.790Z,1.60
2023-02-04T06:54:02.695Z,1.60
2023-02-04T06:55:02.700Z,1.60
2023-02-04T06:56:02.814Z,1.60
2023-02-04T06:57:02.805Z,1.60
2023-02-04T06:58:02.721Z,1.60
2023-02-04T06:59:03.485Z,1.50
2023-02-04T07:00:02.855Z,1.50
2023-02-04T07:01:02.874Z,1.50
2023-02-04T07:02:02.796Z,1.50
2023-02-04T07:03:02.933Z,1.50
2023-02-04T07:04:02.925Z,1.50
2023-02-04T07:05:02.921Z,1.50
2023-02-04T07:06:02.903Z,1.40
2023-02-04T07:07:02.943Z,1.40
2023-02-04T07:08:03.028Z,1.40
2023-02-04T07:09:02.934Z,1.40
2023-02-04T07:10:02.966Z,1.40
2023-02-04T07:11:02.820Z,1.40
2023-02-04T07:12:02.718Z,1.40
2023-02-04T07:13:02.694Z,1.40
2023-02-04T07:14:02.789Z,1.40
2023-02-04T07:15:02.816Z,1.40
2023-02-04T07:16:02.985Z,1.40
2023-02-04T07:17:02.873Z,1.40
2023-02-04T07:18:02.813Z,1.40
2023-02-04T07:19:03.906Z,1.40
2023-02-04T07:20:03.551Z,1.40
2023-02-04T07:21:03.571Z,1.30
2023-02-04T07:22:03.561Z,1.40
2023-02-04T07:23:03.485Z,1.40
2023-02-04T07:24:03.538Z,1.40
2023-02-04T07:25:03.517Z,1.40
2023-02-04T07:26:03.539Z,1.40
2023-02-04T07:27:03.462Z,1.40
2023-02-04T07:28:03.416Z,1.40
2023-02-04T07:29:03.488Z,1.40
2023-02-04T07:30:03.614Z,1.40
2023-02-04T07:31:02.724Z,1.40
2023-02-04T07:32:02.778Z,1.40
2023-02-04T07:33:02.672Z,1.40
2023-02-04T07:34:02.742Z,1.40
2023-02-04T07:35:02.804Z,1.40
2023-02-04T07:36:02.754Z,1.40
2023-02-04T07:37:02.919Z,1.40
2023-02-04T07:38:02.683Z,1.40
2023-02-04T07:39:02.684Z,1.40
2023-02-04T07:40:03.617Z,1.40
2023-02-04T07:41:02.647Z,1.40
2023-02-04T07:42:02.800Z,1.40
2023-02-04T07:43:02.729Z,1.40
2023-02-04T07:44:02.866Z,1.40
2023-02-04T07:45:02.859Z,1.40
2023-02-04T07:46:02.868Z,1.40
2023-02-04T07:47:02.759Z,1.40
2023-02-04T07:48:02.701Z,1.40
2023-02-04T07:49:02.859Z,1.50
2023-02-04T07:50:02.741Z,1.50
2023-02-04T07:51:02.711Z,1.50
2023-02-04T07:52:02.766Z,1.50
2023-02-04T07:53:02.797Z,1.50
2023-02-04T07:54:02.839Z,1.50
2023-02-04T07:55:02.820Z,1.50
2023-02-04T07:56:02.723Z,1.50
2023-02-04T07:57:02.827Z,1.50
2023-02-04T07:58:02.702Z,1.50
2023-02-04T07:59:02.735Z,1.50
2023-02-04T08:00:02.830Z,1.50
2023-02-04T08:01:02.675Z,1.50
2023-02-04T08:02:02.726Z,1.50
2023-02-04T08:03:02.763Z,1.50
2023-02-04T08:04:02.693Z,1.50
2023-02-04T08:05:02.712Z,1.50
2023-02-04T08:06:02.716Z,1.50
2023-02-04T08:07:02.697Z,1.60
2023-02-04T08:08:02.725Z,1.50
2023-02-04T08:09:02.623Z,1.60
2023-02-04T08:10:02.682Z,1.60
2023-02-04T08:11:02.658Z,1.60
2023-02-04T08:12:02.678Z,1.50
2023-02-04T08:13:02.672Z,1.60
2023-02-04T08:14:03.604Z,1.60
2023-02-04T08:15:03.560Z,1.60
2023-02-04T08:16:02.675Z,1.60
2023-02-04T08:17:02.733Z,1.60
2023-02-04T08:18:02.639Z,1.60
2023-02-04T08:19:03.565Z,1.60
2023-02-04T08:20:02.691Z,1.60
2023-02-04T08:21:03.619Z,1.60
2023-02-04T08:22:03.523Z,1.60
2023-02-04T08:23:03.480Z,1.60
2023-02-04T08:24:03.405Z,1.60
2023-02-04T08:25:03.422Z,1.70
2023-02-04T08:26:03.526Z,1.70
2023-02-04T08:27:03.451Z,1.70
2023-02-04T08:28:03.434Z,1.70
2023-02-04T08:29:03.521Z,1.70
2023-02-04T08:30:03.477Z,1.70
2023-02-04T08:31:03.556Z,1.70
2023-02-04T08:32:03.468Z,1.70
2023-02-04T08:33:03.322Z,1.70
2023-02-04T08:34:03.261Z,1.80
2023-02-04T08:35:04.527Z,1.80
2023-02-04T08:36:03.233Z,1.80
2023-02-04T08:37:03.215Z,1.90
2023-02-04T08:38:03.241Z,1.90
2023-02-04T08:39:03.082Z,1.90
2023-02-04T08:40:03.173Z,1.90
2023-02-04T08:41:03.135Z,1.90
2023-02-04T08:42:03.002Z,2.00
2023-02-04T08:43:03.147Z,2.00
2023-02-04T08:44:03.258Z,2.00
2023-02-04T08:45:03.248Z,2.00
2023-02-04T08:46:03.152Z,2.00
2023-02-04T08:47:03.112Z,2.00
2023-02-04T08:48:03.060Z,2.00
2023-02-04T08:49:03.168Z,2.00
2023-02-04T08:50:03.240Z,2.00
2023-02-04T08:51:03.351Z,2.00
2023-02-04T08:52:03.276Z,2.00
2023-02-04T08:53:03.291Z,2.00
2023-02-04T08:54:03.386Z,2.00
2023-02-04T08:55:03.261Z,2.00
2023-02-04T08:56:03.351Z,2.00
2023-02-04T08:57:03.539Z,2.00
2023-02-04T08:58:03.296Z,2.10
2023-02-04T08:59:03.282Z,2.10
2023-02-04T09:00:03.400Z,2.10
2023-02-04T09:01:03.381Z,2.00
2023-02-04T09:02:03.482Z,2.00
2023-02-04T09:03:03.399Z,2.00
2023-02-04T09:04:03.458Z,2.00
2023-02-04T09:05:03.348Z,2.00
2023-02-04T09:06:03.318Z,2.00
2023-02-04T09:07:03.542Z,2.00
2023-02-04T09:08:03.343Z,2.00
2023-02-04T09:09:03.402Z,2.00
2023-02-04T09:10:03.337Z,2.00
2023-02-04T09:11:03.319Z,2.00
2023-02-04T09:12:03.352Z,2.00
2023-02-04T09:13:03.260Z,2.00
2023-02-04T09:14:03.263Z,2.00
2023-02-04T09:15:03.293Z,2.00
2023-02-04T09:16:03.333Z,2.00
2023-02-04T09:17:03.311Z,2.00
2023-02-04T09:18:03.194Z,2.00
2023-02-04T09:19:03.300Z,2.00
2023-02-04T09:20:03.341Z,2.00
2023-02-04T09:21:03.473Z,1.90
2023-02-04T09:22:03.371Z,2.00
2023-02-04T09:23:03.462Z,2.00
2023-02-04T09:24:03.542Z,2.00
2023-02-04T09:25:03.466Z,2.00
2023-02-04T09:26:03.329Z,2.00
2023-02-04T09:27:03.441Z,2.00
2023-02-04T09:28:03.389Z,2.10
2023-02-04T09:29:03.290Z,2.10
2023-02-04T09:30:03.232Z,2.10
2023-02-04T09:31:04.572Z,2.10
2023-02-04T09:32:03.314Z,2.10
2023-02-04T09:33:03.221Z,2.10
2023-02-04T09:34:03.277Z,2.10
2023-02-04T09:35:03.312Z,2.10
2023-02-04T09:36:03.299Z,2.10
2023-02-04T09:37:03.251Z,2.10
2023-02-04T09:38:03.242Z,2.10
2023-02-04T09:39:03.164Z,2.10
2023-02-04T09:40:03.015Z,2.10
2023-02-04T09:41:03.059Z,2.10
2023-02-04T09:42:03.152Z,2.20
2023-02-04T09:43:03.271Z,2.20
2023-02-04T09:44:03.261Z,2.20
2023-02-04T09:45:03.359Z,2.30
2023-02-04T09:46:03.398Z,2.30
2023-02-04T09:47:03.315Z,2.30
2023-02-04T09:48:03.343Z,2.30
2023-02-04T09:49:03.343Z,2.40
2023-02-04T09:50:03.431Z,2.40
2023-02-04T09:51:03.574Z,2.40
2023-02-04T09:52:03.503Z,2.50
2023-02-04T09:53:03.483Z,2.60
2023-02-04T09:54:03.541Z,2.60
2023-02-04T09:55:03.439Z,2.70
2023-02-04T09:56:03.447Z,2.80
2023-02-04T09:57:03.527Z,2.90
2023-02-04T09:58:03.457Z,3.00
2023-02-04T09:59:03.539Z,3.00
2023-02-04T10:00:03.517Z,3.10
2023-02-04T10:01:03.604Z,3.10
2023-02-04T10:02:03.560Z,3.10
2023-02-04T10:03:03.579Z,3.10
2023-02-04T10:04:02.697Z,3.10
2023-02-04T10:05:02.780Z,3.10
2023-02-04T10:06:02.736Z,3.10
2023-02-04T10:07:02.659Z,3.10
2023-02-04T10:08:03.593Z,3.00
2023-02-04T10:09:03.595Z,3.00
2023-02-04T10:10:02.626Z,3.00
2023-02-04T10:11:02.625Z,2.90
2023-02-04T10:12:02.709Z,2.90
2023-02-04T10:13:03.608Z,2.90
2023-02-04T10:14:03.577Z,2.90
2023-02-04T10:15:03.554Z,2.80
2023-02-04T10:16:03.523Z,2.80
2023-02-04T10:17:03.756Z,2.70
2023-02-04T10:18:02.798Z,2.70
2023-02-04T10:19:02.933Z,2.60
2023-02-04T10:20:02.747Z,2.60
2023-02-04T10:21:02.800Z,2.60
2023-02-04T10:22:02.653Z,2.60
2023-02-04T10:23:02.662Z,2.60
2023-02-04T10:24:02.658Z,2.60
2023-02-04T10:25:02.640Z,2.50
2023-02-04T10:26:02.671Z,2.50
2023-02-04T10:27:02.677Z,2.50
2023-02-04T10:28:02.766Z,2.60
2023-02-04T10:29:02.717Z,2.60
2023-02-04T10:30:02.640Z,2.60
2023-02-04T10:31:02.814Z,2.60
2023-02-04T10:32:03.529Z,2.60
2023-02-04T10:33:03.558Z,2.60
2023-02-04T10:34:03.531Z,2.60
2023-02-04T10:35:03.444Z,2.60
2023-02-04T10:36:03.516Z,2.70
2023-02-04T10:37:03.578Z,2.70
2023-02-04T10:38:03.578Z,2.70
2023-02-04T10:39:03.584Z,2.70
2023-02-04T10:40:03.629Z,2.70
2023-02-04T10:41:03.693Z,2.70
2023-02-04T10:42:03.549Z,2.70
2023-02-04T10:43:02.652Z,2.70
2023-02-04T10:44:03.167Z,2.70
2023-02-04T10:45:03.166Z,2.70
2023-02-04T10:46:03.259Z,2.70
2023-02-04T10:47:03.112Z,2.70
2023-02-04T10:48:03.164Z,2.70
2023-02-04T10:49:03.188Z,2.80
2023-02-04T10:50:03.218Z,2.80
2023-02-04T10:51:03.393Z,2.80
2023-02-04T10:52:03.374Z,2.80
2023-02-04T10:53:03.398Z,2.90
2023-02-04T10:54:03.441Z,2.90
2023-02-04T10:55:03.528Z,3.00
2023-02-04T10:56:03.456Z,3.00
2023-02-04T10:57:03.506Z,3.00
2023-02-04T10:58:03.550Z,3.10
2023-02-04T10:59:03.552Z,3.10
2023-02-04T11:00:03.536Z,3.10
2023-02-04T11:01:03.691Z,3.20
2023-02-04T11:02:03.561Z,3.10
2023-02-04T11:03:02.777Z,3.20
2023-02-04T11:04:02.691Z,3.10
2023-02-04T11:05:02.760Z,3.10
2023-02-04T11:06:02.771Z,3.20
2023-02-04T11:07:02.757Z,3.20
2023-02-04T11:08:02.785Z,3.20
2023-02-04T11:09:02.773Z,3.20
2023-02-04T11:10:02.706Z,3.20
2023-02-04T11:11:02.710Z,3.20
2023-02-04T11:12:02.671Z,3.20
2023-02-04T11:13:02.755Z,3.30
2023-02-04T11:14:02.832Z,3.30
2023-02-04T11:15:02.845Z,3.30
2023-02-04T11:16:02.814Z,3.30
2023-02-04T11:17:02.800Z,3.40
2023-02-04T11:18:02.825Z,3.40
2023-02-04T11:19:02.851Z,3.40
2023-02-04T11:20:02.908Z,3.40
2023-02-04T11:21:03.060Z,3.40
2023-02-04T11:22:03.117Z,3.40
2023-02-04T11:23:02.909Z,3.50
2023-02-04T11:24:03.047Z,3.50
2023-02-04T11:25:02.909Z,3.50
2023-02-04T11:26:02.932Z,3.50
2023-02-04T11:27:02.922Z,3.50
2023-02-04T11:28:02.933Z,3.50
2023-02-04T11:29:03.010Z,3.50
2023-02-04T11:30:03.046Z,3.50
2023-02-04T11:31:03.216Z,3.50
2023-02-04T11:32:03.271Z,3.50
2023-02-04T11:33:03.152Z,3.40
2023-02-04T11:34:03.200Z,3.40
2023-02-04T11:35:03.231Z,3.40
2023-02-04T11:36:03.235Z,3.40
2023-02-04T11:37:03.245Z,3.30
2023-02-04T11:38:03.249Z,3.30
2023-02-04T11:39:03.157Z,3.30
2023-02-04T11:40:03.266Z,3.30
2023-02-04T11:41:03.314Z,3.20
2023-02-04T11:42:03.263Z,3.20
2023-02-04T11:43:03.354Z,3.20
2023-02-04T11:44:03.379Z,3.20
2023-02-04T11:45:03.429Z,3.20
2023-02-04T11:46:03.359Z,3.10
2023-02-04T11:47:03.416Z,3.10
2023-02-04T11:48:03.510Z,3.10
2023-02-04T11:49:03.546Z,3.10
2023-02-04T11:50:02.611Z,3.10
2023-02-04T11:51:02.748Z,3.10
2023-02-04T11:52:02.673Z,3.10
2023-02-04T11:53:03.204Z,3.10
2023-02-04T11:54:03.228Z,3.10
2023-02-04T11:55:03.185Z,3.10
2023-02-04T11:56:03.139Z,3.10
2023-02-04T11:57:03.220Z,3.10
2023-02-04T11:58:03.202Z,3.10
2023-02-04T11:59:03.146Z,3.10
2023-02-04T12:00:03.084Z,3.10
2023-02-04T12:01:03.113Z,3.10
2023-02-04T12:02:02.943Z,3.10
2023-02-04T12:03:03.078Z,3.10
2023-02-04T12:04:03.021Z,3.10
2023-02-04T12:05:03.095Z,3.20
2023-02-04T12:06:03.080Z,3.20
2023-02-04T12:07:03.101Z,3.20
2023-02-04T12:08:03.059Z,3.20
2023-02-04T12:09:03.018Z,3.30
2023-02-04T12:10:03.063Z,3.30
2023-02-04T12:11:03.108Z,3.30
2023-02-04T12:12:03.248Z,3.30
2023-02-04T12:13:03.237Z,3.30
2023-02-04T12:14:03.269Z,3.30
2023-02-04T12:15:03.269Z,3.40
2023-02-04T12:16:03.286Z,3.40
2023-02-04T12:17:03.182Z,3.40
2023-02-04T12:18:03.143Z,3.40
2023-02-04T12:19:03.177Z,3.40
2023-02-04T12:20:03.247Z,3.50
2023-02-04T12:21:03.315Z,3.50
2023-02-04T12:22:03.317Z,3.50
2023-02-04T12:23:03.278Z,3.50
2023-02-04T12:24:03.129Z,3.50
2023-02-04T12:25:03.072Z,3.50
2023-02-04T12:26:03.074Z,3.50
2023-02-04T12:27:03.070Z,3.50
2023-02-04T12:28:03.150Z,3.60
2023-02-04T12:29:03.008Z,3.60
2023-02-04T12:30:02.936Z,3.60
2023-02-04T12:31:03.170Z,3.60
2023-02-04T12:32:03.063Z,3.60
2023-02-04T12:33:02.970Z,3.60
2023-02-04T12:34:03.013Z,3.70
2023-02-04T12:35:03.085Z,3.70
2023-02-04T12:36:03.112Z,3.70
2023-02-04T12:37:03.235Z,3.80
2023-02-04T12:38:03.329Z,3.80
2023-02-04T12:39:03.321Z,3.90
2023-02-04T12:40:03.306Z,3.90
2023-02-04T12:41:03.277Z,3.90
2023-02-04T12:42:03.191Z,3.90
2023-02-04T12:43:03.230Z,3.90
2023-02-04T12:44:02.671Z,4.00
2023-02-04T12:45:02.736Z,4.00
2023-02-04T12:46:02.766Z,4.00
2023-02-04T12:47:02.816Z,4.00
2023-02-04T12:48:02.939Z,4.00
2023-02-04T12:49:02.883Z,4.00
2023-02-04T12:50:03.035Z,4.00
2023-02-04T12:51:03.003Z,4.00
2023-02-04T12:52:03.025Z,4.00
2023-02-04T12:53:02.957Z,4.00
2023-02-04T12:54:02.929Z,4.00
2023-02-04T12:55:02.922Z,4.00
2023-02-04T12:56:02.991Z,4.00
2023-02-04T12:57:02.995Z,4.00
2023-02-04T12:58:03.045Z,4.00
2023-02-04T12:59:02.988Z,3.90
2023-02-04T13:00:02.949Z,3.90
2023-02-04T13:01:04.370Z,3.90
2023-02-04T13:02:02.957Z,3.90
2023-02-04T13:03:02.935Z,3.80
2023-02-04T13:04:02.903Z,3.80
2023-02-04T13:05:02.922Z,3.80
2023-02-04T13:06:02.916Z,3.80
2023-02-04T13:07:03.691Z,3.70
2023-02-04T13:08:02.790Z,3.70
2023-02-04T13:09:02.942Z,3.70
2023-02-04T13:10:02.945Z,3.70
2023-02-04T13:11:02.939Z,3.70
2023-02-04T13:12:02.919Z,3.60
2023-02-04T13:13:04.510Z,3.60
2023-02-04T13:14:03.143Z,3.60
2023-02-04T13:15:03.089Z,3.60
2023-02-04T13:16:03.185Z,3.60
2023-02-04T13:17:03.093Z,3.60
2023-02-04T13:18:03.255Z,3.70